Anderson, Alabama
Current Conditions -  °F | °C
As of 10:53 PM on Tuesday 21 Oct 2014 (Local Time) from KMSL Reporting Station
Clear Clear  
Wind Chill: 60°   Ceiling: Unl
Heat Index: 60°   Visibility: 10mi
Dew Point: 48°   Wind: 6mph
Humidity: 64%   Direction: 40°NE
Pressure: 30.1"   Gusts: NA
Location:  34.93°N, 87.27°W
Report Text: KMSL 220353Z AUTO 04005KT 10SM CLR 16/09 A3010 RMK AO2 SLP188 T01560089 $
Loading
Personal Weather Stations






























Interactive Weather Map
Tropical Storm Tracking
New forecast layout! Learn more

10-Day Weather Forecast

Advertisements
Track Severe Weather on mobile